sensor_id;sensor_type;location;lat;lon;timestamp;P1;durP1;ratioP1;P2;durP2;ratioP2
4595;SDS011;2310;49.978;8.742;2023-08-31T00:00:18;6.03;;;5.10;;
4595;SDS011;2310;49.978;8.742;2023-08-31T00:04:19;6.60;;;4.57;;
4595;SDS011;2310;49.978;8.742;2023-08-31T00:08:21;5.00;;;3.73;;
4595;SDS011;2310;49.978;8.742;2023-08-31T00:12:23;10.10;;;5.10;;
4595;SDS011;2310;49.978;8.742;2023-08-31T00:16:25;6.70;;;5.10;;
4595;SDS011;2310;49.978;8.742;2023-08-31T00:20:27;7.27;;;4.80;;
4595;SDS011;2310;49.978;8.742;2023-08-31T00:24:30;7.10;;;4.83;;
4595;SDS011;2310;49.978;8.742;2023-08-31T00:28:34;6.50;;;5.33;;
4595;SDS011;2310;49.978;8.742;2023-08-31T00:32:35;7.00;;;5.00;;
4595;SDS011;2310;49.978;8.742;2023-08-31T00:36:37;9.57;;;4.80;;
4595;SDS011;2310;49.978;8.742;2023-08-31T00:40:39;7.17;;;5.53;;
4595;SDS011;2310;49.978;8.742;2023-08-31T00:44:47;9.60;;;5.17;;
4595;SDS011;2310;49.978;8.742;2023-08-31T00:48:49;5.70;;;4.37;;
4595;SDS011;2310;49.978;8.742;2023-08-31T00:52:51;6.40;;;4.53;;
4595;SDS011;2310;49.978;8.742;2023-08-31T00:56:53;8.17;;;5.47;;
4595;SDS011;2310;49.978;8.742;2023-08-31T01:01:05;5.93;;;4.87;;
4595;SDS011;2310;49.978;8.742;2023-08-31T01:09:40;9.50;;;5.20;;
4595;SDS011;2310;49.978;8.742;2023-08-31T01:13:47;5.87;;;4.57;;
4595;SDS011;2310;49.978;8.742;2023-08-31T01:17:50;8.13;;;4.70;;
4595;SDS011;2310;49.978;8.742;2023-08-31T01:26:01;6.47;;;5.57;;
4595;SDS011;2310;49.978;8.742;2023-08-31T01:30:03;9.77;;;5.40;;
4595;SDS011;2310;49.978;8.742;2023-08-31T01:34:06;6.10;;;5.40;;
4595;SDS011;2310;49.978;8.742;2023-08-31T01:38:07;8.47;;;4.87;;
4595;SDS011;2310;49.978;8.742;2023-08-31T01:42:12;8.33;;;5.40;;
4595;SDS011;2310;49.978;8.742;2023-08-31T01:46:16;10.00;;;5.53;;
4595;SDS011;2310;49.978;8.742;2023-08-31T01:50:18;6.53;;;4.70;;
4595;SDS011;2310;49.978;8.742;2023-08-31T01:54:19;10.23;;;6.43;;
4595;SDS011;2310;49.978;8.742;2023-08-31T01:58:21;10.07;;;6.00;;
4595;SDS011;2310;49.978;8.742;2023-08-31T02:02:23;6.77;;;5.03;;
4595;SDS011;2310;49.978;8.742;2023-08-31T02:06:25;8.37;;;5.70;;
4595;SDS011;2310;49.978;8.742;2023-08-31T02:10:26;8.50;;;6.40;;
4595;SDS011;2310;49.978;8.742;2023-08-31T02:14:29;9.97;;;6.70;;
4595;SDS011;2310;49.978;8.742;2023-08-31T02:18:31;12.03;;;6.43;;
4595;SDS011;2310;49.978;8.742;2023-08-31T02:22:33;9.80;;;6.60;;
4595;SDS011;2310;49.978;8.742;2023-08-31T02:26:36;6.83;;;5.70;;
4595;SDS011;2310;49.978;8.742;2023-08-31T02:30:40;10.17;;;6.40;;
4595;SDS011;2310;49.978;8.742;2023-08-31T02:34:41;9.37;;;6.70;;
4595;SDS011;2310;49.978;8.742;2023-08-31T02:38:43;10.60;;;6.13;;
4595;SDS011;2310;49.978;8.742;2023-08-31T02:42:44;8.00;;;5.50;;
4595;SDS011;2310;49.978;8.742;2023-08-31T02:46:45;9.67;;;6.57;;
4595;SDS011;2310;49.978;8.742;2023-08-31T02:50:47;9.30;;;7.20;;
4595;SDS011;2310;49.978;8.742;2023-08-31T02:54:48;7.73;;;6.30;;
4595;SDS011;2310;49.978;8.742;2023-08-31T02:58:49;12.13;;;6.97;;
4595;SDS011;2310;49.978;8.742;2023-08-31T03:02:51;9.47;;;7.00;;
4595;SDS011;2310;49.978;8.742;2023-08-31T03:06:54;10.30;;;6.87;;
4595;SDS011;2310;49.978;8.742;2023-08-31T03:10:56;11.53;;;6.77;;
4595;SDS011;2310;49.978;8.742;2023-08-31T03:14:58;9.47;;;6.80;;
4595;SDS011;2310;49.978;8.742;2023-08-31T03:18:59;8.87;;;6.10;;
4595;SDS011;2310;49.978;8.742;2023-08-31T03:23:01;8.30;;;6.03;;
4595;SDS011;2310;49.978;8.742;2023-08-31T03:27:02;8.23;;;6.30;;
4595;SDS011;2310;49.978;8.742;2023-08-31T03:31:04;7.43;;;6.30;;
4595;SDS011;2310;49.978;8.742;2023-08-31T03:35:06;11.03;;;7.20;;
4595;SDS011;2310;49.978;8.742;2023-08-31T03:39:08;7.93;;;6.20;;
4595;SDS011;2310;49.978;8.742;2023-08-31T03:43:10;8.73;;;6.53;;
4595;SDS011;2310;49.978;8.742;2023-08-31T03:47:12;11.67;;;6.97;;
4595;SDS011;2310;49.978;8.742;2023-08-31T03:51:13;12.87;;;7.07;;
4595;SDS011;2310;49.978;8.742;2023-08-31T03:55:15;12.00;;;7.73;;
4595;SDS011;2310;49.978;8.742;2023-08-31T03:59:16;11.80;;;7.93;;
4595;SDS011;2310;49.978;8.742;2023-08-31T04:03:17;10.67;;;7.60;;
4595;SDS011;2310;49.978;8.742;2023-08-31T04:07:19;14.10;;;8.60;;
4595;SDS011;2310;49.978;8.742;2023-08-31T04:11:20;11.53;;;9.30;;
4595;SDS011;2310;49.978;8.742;2023-08-31T04:15:22;11.10;;;9.33;;
4595;SDS011;2310;49.978;8.742;2023-08-31T04:19:23;12.60;;;10.17;;
4595;SDS011;2310;49.978;8.742;2023-08-31T04:23:24;10.23;;;8.87;;
4595;SDS011;2310;49.978;8.742;2023-08-31T04:27:26;13.30;;;10.70;;
4595;SDS011;2310;49.978;8.742;2023-08-31T04:31:28;12.83;;;10.40;;
4595;SDS011;2310;49.978;8.742;2023-08-31T04:35:30;13.90;;;11.60;;
4595;SDS011;2310;49.978;8.742;2023-08-31T04:39:32;16.13;;;12.37;;
4595;SDS011;2310;49.978;8.742;2023-08-31T04:43:33;16.20;;;13.07;;
4595;SDS011;2310;49.978;8.742;2023-08-31T04:47:35;13.83;;;12.43;;
4595;SDS011;2310;49.978;8.742;2023-08-31T04:51:36;16.57;;;11.90;;
4595;SDS011;2310;49.978;8.742;2023-08-31T04:55:40;12.40;;;10.33;;
4595;SDS011;2310;49.978;8.742;2023-08-31T04:59:41;15.50;;;11.80;;
4595;SDS011;2310;49.978;8.742;2023-08-31T05:03:43;13.90;;;11.93;;
4595;SDS011;2310;49.978;8.742;2023-08-31T05:07:44;12.00;;;10.50;;
4595;SDS011;2310;49.978;8.742;2023-08-31T05:11:45;16.80;;;11.07;;
4595;SDS011;2310;49.978;8.742;2023-08-31T05:15:47;14.80;;;11.90;;
4595;SDS011;2310;49.978;8.742;2023-08-31T05:19:48;15.07;;;10.13;;
4595;SDS011;2310;49.978;8.742;2023-08-31T05:23:51;11.70;;;10.10;;
4595;SDS011;2310;49.978;8.742;2023-08-31T05:27:52;16.83;;;9.90;;
4595;SDS011;2310;49.978;8.742;2023-08-31T05:31:54;13.70;;;10.80;;
4595;SDS011;2310;49.978;8.742;2023-08-31T05:35:55;11.87;;;10.07;;
4595;SDS011;2310;49.978;8.742;2023-08-31T05:39:57;12.67;;;9.77;;
4595;SDS011;2310;49.978;8.742;2023-08-31T05:43:58;11.67;;;9.70;;
4595;SDS011;2310;49.978;8.742;2023-08-31T05:47:59;11.57;;;8.90;;
4595;SDS011;2310;49.978;8.742;2023-08-31T05:52:01;11.47;;;8.50;;
4595;SDS011;2310;49.978;8.742;2023-08-31T05:56:03;14.17;;;9.77;;
4595;SDS011;2310;49.978;8.742;2023-08-31T06:00:07;14.10;;;9.33;;
4595;SDS011;2310;49.978;8.742;2023-08-31T06:04:09;11.80;;;8.37;;
4595;SDS011;2310;49.978;8.742;2023-08-31T06:08:11;14.37;;;8.77;;
4595;SDS011;2310;49.978;8.742;2023-08-31T06:12:12;10.60;;;7.50;;
4595;SDS011;2310;49.978;8.742;2023-08-31T06:16:14;15.23;;;8.87;;
4595;SDS011;2310;49.978;8.742;2023-08-31T06:20:15;13.17;;;8.30;;
4595;SDS011;2310;49.978;8.742;2023-08-31T06:24:17;8.83;;;7.53;;
4595;SDS011;2310;49.978;8.742;2023-08-31T06:28:18;12.33;;;6.60;;
4595;SDS011;2310;49.978;8.742;2023-08-31T06:32:19;8.63;;;7.03;;
4595;SDS011;2310;49.978;8.742;2023-08-31T06:36:21;10.40;;;7.43;;
4595;SDS011;2310;49.978;8.742;2023-08-31T06:40:22;9.20;;;6.57;;
4595;SDS011;2310;49.978;8.742;2023-08-31T06:44:24;8.10;;;5.50;;
4595;SDS011;2310;49.978;8.742;2023-08-31T06:48:25;8.27;;;6.40;;
4595;SDS011;2310;49.978;8.742;2023-08-31T06:52:27;12.57;;;6.70;;
4595;SDS011;2310;49.978;8.742;2023-08-31T06:56:30;8.90;;;5.80;;
4595;SDS011;2310;49.978;8.742;2023-08-31T07:00:32;10.50;;;6.47;;
4595;SDS011;2310;49.978;8.742;2023-08-31T07:04:38;11.13;;;6.37;;
4595;SDS011;2310;49.978;8.742;2023-08-31T07:08:39;8.93;;;5.70;;
4595;SDS011;2310;49.978;8.742;2023-08-31T07:12:41;14.40;;;6.40;;
4595;SDS011;2310;49.978;8.742;2023-08-31T07:16:43;9.77;;;5.90;;
4595;SDS011;2310;49.978;8.742;2023-08-31T07:20:45;10.27;;;5.83;;
4595;SDS011;2310;49.978;8.742;2023-08-31T07:24:47;7.00;;;5.37;;
4595;SDS011;2310;49.978;8.742;2023-08-31T07:28:48;9.37;;;5.73;;
4595;SDS011;2310;49.978;8.742;2023-08-31T07:32:49;8.40;;;5.30;;
4595;SDS011;2310;49.978;8.742;2023-08-31T07:36:51;7.03;;;4.57;;
4595;SDS011;2310;49.978;8.742;2023-08-31T07:40:53;6.07;;;4.53;;
4595;SDS011;2310;49.978;8.742;2023-08-31T07:44:54;7.53;;;5.80;;
4595;SDS011;2310;49.978;8.742;2023-08-31T07:48:56;8.13;;;3.90;;
4595;SDS011;2310;49.978;8.742;2023-08-31T07:52:57;8.70;;;4.10;;
4595;SDS011;2310;49.978;8.742;2023-08-31T07:56:58;5.30;;;3.37;;
4595;SDS011;2310;49.978;8.742;2023-08-31T08:01:01;8.23;;;4.37;;
4595;SDS011;2310;49.978;8.742;2023-08-31T08:05:02;5.90;;;3.40;;
4595;SDS011;2310;49.978;8.742;2023-08-31T08:09:04;7.40;;;4.13;;
4595;SDS011;2310;49.978;8.742;2023-08-31T08:13:06;7.43;;;4.77;;
4595;SDS011;2310;49.978;8.742;2023-08-31T08:17:08;9.63;;;4.53;;
4595;SDS011;2310;49.978;8.742;2023-08-31T08:21:09;8.03;;;4.70;;
4595;SDS011;2310;49.978;8.742;2023-08-31T08:25:10;9.73;;;4.17;;
4595;SDS011;2310;49.978;8.742;2023-08-31T08:29:12;5.53;;;3.87;;
4595;SDS011;2310;49.978;8.742;2023-08-31T08:33:13;8.47;;;4.37;;
4595;SDS011;2310;49.978;8.742;2023-08-31T08:37:15;11.20;;;4.07;;
4595;SDS011;2310;49.978;8.742;2023-08-31T08:41:17;8.37;;;3.83;;
4595;SDS011;2310;49.978;8.742;2023-08-31T08:45:23;6.83;;;3.70;;
4595;SDS011;2310;49.978;8.742;2023-08-31T08:49:26;8.23;;;3.83;;
4595;SDS011;2310;49.978;8.742;2023-08-31T08:53:29;9.27;;;4.30;;
4595;SDS011;2310;49.978;8.742;2023-08-31T08:57:31;8.43;;;3.43;;
4595;SDS011;2310;49.978;8.742;2023-08-31T09:01:34;6.87;;;3.30;;
4595;SDS011;2310;49.978;8.742;2023-08-31T09:05:36;5.73;;;3.80;;
4595;SDS011;2310;49.978;8.742;2023-08-31T09:09:50;7.20;;;3.67;;
4595;SDS011;2310;49.978;8.742;2023-08-31T09:13:53;6.27;;;3.03;;
4595;SDS011;2310;49.978;8.742;2023-08-31T09:17:54;10.67;;;3.73;;
4595;SDS011;2310;49.978;8.742;2023-08-31T09:21:56;5.33;;;3.83;;
4595;SDS011;2310;49.978;8.742;2023-08-31T09:25:58;6.90;;;3.53;;
4595;SDS011;2310;49.978;8.742;2023-08-31T09:29:59;8.83;;;3.90;;
4595;SDS011;2310;49.978;8.742;2023-08-31T09:34:01;5.80;;;3.13;;
4595;SDS011;2310;49.978;8.742;2023-08-31T09:38:04;9.17;;;3.57;;
4595;SDS011;2310;49.978;8.742;2023-08-31T09:42:10;6.27;;;2.67;;
4595;SDS011;2310;49.978;8.742;2023-08-31T09:46:12;5.50;;;2.20;;
4595;SDS011;2310;49.978;8.742;2023-08-31T09:50:14;7.27;;;2.90;;
4595;SDS011;2310;49.978;8.742;2023-08-31T09:54:17;6.93;;;2.80;;
4595;SDS011;2310;49.978;8.742;2023-08-31T09:58:20;5.00;;;2.27;;
4595;SDS011;2310;49.978;8.742;2023-08-31T10:02:22;5.37;;;2.60;;
4595;SDS011;2310;49.978;8.742;2023-08-31T10:06:24;5.30;;;2.43;;
4595;SDS011;2310;49.978;8.742;2023-08-31T10:10:27;8.60;;;3.13;;
4595;SDS011;2310;49.978;8.742;2023-08-31T10:14:31;5.20;;;2.43;;
4595;SDS011;2310;49.978;8.742;2023-08-31T10:18:36;4.07;;;2.60;;
4595;SDS011;2310;49.978;8.742;2023-08-31T10:22:37;4.33;;;2.33;;
4595;SDS011;2310;49.978;8.742;2023-08-31T10:26:39;6.10;;;2.57;;
4595;SDS011;2310;49.978;8.742;2023-08-31T10:30:43;7.00;;;2.80;;
4595;SDS011;2310;49.978;8.742;2023-08-31T10:35:03;6.47;;;2.67;;
4595;SDS011;2310;49.978;8.742;2023-08-31T10:39:17;4.80;;;3.00;;
4595;SDS011;2310;49.978;8.742;2023-08-31T10:43:20;5.57;;;3.43;;
4595;SDS011;2310;49.978;8.742;2023-08-31T10:47:21;9.67;;;6.20;;
4595;SDS011;2310;49.978;8.742;2023-08-31T10:51:30;5.30;;;2.73;;
4595;SDS011;2310;49.978;8.742;2023-08-31T10:55:33;7.70;;;2.77;;
4595;SDS011;2310;49.978;8.742;2023-08-31T10:59:42;5.23;;;2.80;;
4595;SDS011;2310;49.978;8.742;2023-08-31T11:03:57;4.30;;;2.50;;
4595;SDS011;2310;49.978;8.742;2023-08-31T11:07:59;4.90;;;2.40;;
4595;SDS011;2310;49.978;8.742;2023-08-31T11:12:01;4.90;;;2.70;;
4595;SDS011;2310;49.978;8.742;2023-08-31T11:16:03;5.60;;;2.90;;
4595;SDS011;2310;49.978;8.742;2023-08-31T11:20:07;3.87;;;1.93;;
4595;SDS011;2310;49.978;8.742;2023-08-31T11:24:10;6.30;;;2.50;;
4595;SDS011;2310;49.978;8.742;2023-08-31T11:28:11;3.93;;;2.40;;
4595;SDS011;2310;49.978;8.742;2023-08-31T11:32:12;5.80;;;2.30;;
4595;SDS011;2310;49.978;8.742;2023-08-31T11:36:14;5.40;;;2.20;;
4595;SDS011;2310;49.978;8.742;2023-08-31T11:40:18;4.70;;;2.43;;
4595;SDS011;2310;49.978;8.742;2023-08-31T11:44:19;5.00;;;2.80;;
4595;SDS011;2310;49.978;8.742;2023-08-31T11:48:21;6.03;;;2.60;;
4595;SDS011;2310;49.978;8.742;2023-08-31T11:52:23;4.83;;;2.73;;
4595;SDS011;2310;49.978;8.742;2023-08-31T11:56:25;6.03;;;2.63;;
4595;SDS011;2310;49.978;8.742;2023-08-31T12:00:26;6.57;;;2.23;;
4595;SDS011;2310;49.978;8.742;2023-08-31T12:04:27;4.93;;;2.67;;
4595;SDS011;2310;49.978;8.742;2023-08-31T12:08:29;5.67;;;2.70;;
4595;SDS011;2310;49.978;8.742;2023-08-31T12:12:30;5.07;;;2.17;;
4595;SDS011;2310;49.978;8.742;2023-08-31T12:16:34;5.20;;;2.40;;
4595;SDS011;2310;49.978;8.742;2023-08-31T12:20:48;3.87;;;1.93;;
4595;SDS011;2310;49.978;8.742;2023-08-31T12:24:54;5.60;;;2.73;;
4595;SDS011;2310;49.978;8.742;2023-08-31T12:28:55;5.33;;;2.27;;
4595;SDS011;2310;49.978;8.742;2023-08-31T12:32:56;4.67;;;2.50;;
4595;SDS011;2310;49.978;8.742;2023-08-31T12:36:58;4.20;;;2.30;;
4595;SDS011;2310;49.978;8.742;2023-08-31T12:41:01;5.97;;;2.80;;
4595;SDS011;2310;49.978;8.742;2023-08-31T12:45:03;7.23;;;2.20;;
4595;SDS011;2310;49.978;8.742;2023-08-31T12:49:06;3.90;;;2.33;;
4595;SDS011;2310;49.978;8.742;2023-08-31T12:53:08;4.00;;;2.27;;
4595;SDS011;2310;49.978;8.742;2023-08-31T12:57:09;5.40;;;2.20;;
4595;SDS011;2310;49.978;8.742;2023-08-31T13:01:10;4.10;;;2.20;;
4595;SDS011;2310;49.978;8.742;2023-08-31T13:05:12;4.10;;;1.80;;
4595;SDS011;2310;49.978;8.742;2023-08-31T13:09:13;3.77;;;2.03;;
4595;SDS011;2310;49.978;8.742;2023-08-31T13:13:15;4.50;;;1.87;;
4595;SDS011;2310;49.978;8.742;2023-08-31T13:17:16;5.13;;;2.60;;
4595;SDS011;2310;49.978;8.742;2023-08-31T13:21:17;5.40;;;2.30;;
4595;SDS011;2310;49.978;8.742;2023-08-31T13:25:19;5.10;;;2.57;;
4595;SDS011;2310;49.978;8.742;2023-08-31T13:29:20;5.00;;;2.40;;
4595;SDS011;2310;49.978;8.742;2023-08-31T13:33:21;5.73;;;2.37;;
4595;SDS011;2310;49.978;8.742;2023-08-31T13:37:23;5.13;;;2.60;;
4595;SDS011;2310;49.978;8.742;2023-08-31T13:41:24;4.57;;;2.30;;
4595;SDS011;2310;49.978;8.742;2023-08-31T13:45:26;5.47;;;2.37;;
4595;SDS011;2310;49.978;8.742;2023-08-31T13:49:28;3.53;;;1.87;;
4595;SDS011;2310;49.978;8.742;2023-08-31T13:53:29;4.93;;;2.00;;
4595;SDS011;2310;49.978;8.742;2023-08-31T13:57:30;5.30;;;2.37;;
4595;SDS011;2310;49.978;8.742;2023-08-31T14:01:32;5.17;;;2.40;;
4595;SDS011;2310;49.978;8.742;2023-08-31T14:05:33;7.50;;;2.60;;
4595;SDS011;2310;49.978;8.742;2023-08-31T14:09:35;3.90;;;1.93;;
4595;SDS011;2310;49.978;8.742;2023-08-31T14:13:36;6.67;;;2.30;;
4595;SDS011;2310;49.978;8.742;2023-08-31T14:17:38;5.87;;;2.73;;
4595;SDS011;2310;49.978;8.742;2023-08-31T14:21:39;5.50;;;2.77;;
4595;SDS011;2310;49.978;8.742;2023-08-31T14:25:41;6.57;;;2.33;;
4595;SDS011;2310;49.978;8.742;2023-08-31T14:29:42;6.97;;;2.87;;
4595;SDS011;2310;49.978;8.742;2023-08-31T14:33:43;7.60;;;2.90;;
4595;SDS011;2310;49.978;8.742;2023-08-31T14:37:45;7.90;;;3.10;;
4595;SDS011;2310;49.978;8.742;2023-08-31T14:41:46;5.40;;;2.70;;
4595;SDS011;2310;49.978;8.742;2023-08-31T14:45:48;6.13;;;2.90;;
4595;SDS011;2310;49.978;8.742;2023-08-31T14:49:49;9.23;;;3.50;;
4595;SDS011;2310;49.978;8.742;2023-08-31T14:53:50;6.50;;;2.90;;
4595;SDS011;2310;49.978;8.742;2023-08-31T14:57:52;5.67;;;3.00;;
4595;SDS011;2310;49.978;8.742;2023-08-31T15:01:53;4.93;;;3.00;;
4595;SDS011;2310;49.978;8.742;2023-08-31T15:05:55;8.47;;;2.73;;
4595;SDS011;2310;49.978;8.742;2023-08-31T15:09:56;6.93;;;3.13;;
4595;SDS011;2310;49.978;8.742;2023-08-31T15:13:58;6.23;;;2.73;;
4595;SDS011;2310;49.978;8.742;2023-08-31T15:18:03;8.27;;;3.00;;
4595;SDS011;2310;49.978;8.742;2023-08-31T15:22:06;6.03;;;2.90;;
4595;SDS011;2310;49.978;8.742;2023-08-31T15:26:07;6.33;;;3.20;;
4595;SDS011;2310;49.978;8.742;2023-08-31T15:30:09;7.47;;;3.40;;
4595;SDS011;2310;49.978;8.742;2023-08-31T15:34:11;7.47;;;3.17;;
4595;SDS011;2310;49.978;8.742;2023-08-31T15:38:13;6.73;;;3.67;;
4595;SDS011;2310;49.978;8.742;2023-08-31T15:42:14;6.67;;;3.10;;
4595;SDS011;2310;49.978;8.742;2023-08-31T15:46:16;5.40;;;3.10;;
4595;SDS011;2310;49.978;8.742;2023-08-31T15:50:17;8.17;;;3.70;;
4595;SDS011;2310;49.978;8.742;2023-08-31T15:54:19;6.67;;;2.90;;
4595;SDS011;2310;49.978;8.742;2023-08-31T15:58:20;6.43;;;3.20;;
4595;SDS011;2310;49.978;8.742;2023-08-31T16:02:21;6.53;;;3.33;;
4595;SDS011;2310;49.978;8.742;2023-08-31T16:06:22;8.30;;;3.97;;
4595;SDS011;2310;49.978;8.742;2023-08-31T16:10:24;6.60;;;3.23;;
4595;SDS011;2310;49.978;8.742;2023-08-31T16:14:25;5.63;;;2.87;;
4595;SDS011;2310;49.978;8.742;2023-08-31T16:18:27;7.57;;;2.80;;
4595;SDS011;2310;49.978;8.742;2023-08-31T16:22:28;8.23;;;3.53;;
4595;SDS011;2310;49.978;8.742;2023-08-31T16:26:29;9.23;;;3.43;;
4595;SDS011;2310;49.978;8.742;2023-08-31T16:30:31;5.70;;;3.53;;
4595;SDS011;2310;49.978;8.742;2023-08-31T16:34:33;5.63;;;3.33;;
4595;SDS011;2310;49.978;8.742;2023-08-31T16:38:35;5.40;;;3.43;;
4595;SDS011;2310;49.978;8.742;2023-08-31T16:42:40;6.33;;;3.00;;
4595;SDS011;2310;49.978;8.742;2023-08-31T16:46:42;7.27;;;3.67;;
4595;SDS011;2310;49.978;8.742;2023-08-31T16:50:44;7.63;;;3.63;;
4595;SDS011;2310;49.978;8.742;2023-08-31T16:54:45;6.40;;;3.50;;
4595;SDS011;2310;49.978;8.742;2023-08-31T16:58:47;6.00;;;3.30;;
4595;SDS011;2310;49.978;8.742;2023-08-31T17:02:49;7.83;;;2.97;;
4595;SDS011;2310;49.978;8.742;2023-08-31T17:06:51;6.30;;;3.33;;
4595;SDS011;2310;49.978;8.742;2023-08-31T17:10:52;7.90;;;3.20;;
4595;SDS011;2310;49.978;8.742;2023-08-31T17:14:53;7.77;;;3.70;;
4595;SDS011;2310;49.978;8.742;2023-08-31T17:18:55;4.83;;;3.13;;
4595;SDS011;2310;49.978;8.742;2023-08-31T17:22:56;8.00;;;3.50;;
4595;SDS011;2310;49.978;8.742;2023-08-31T17:26:57;6.10;;;3.07;;
4595;SDS011;2310;49.978;8.742;2023-08-31T17:30:59;7.27;;;3.80;;
4595;SDS011;2310;49.978;8.742;2023-08-31T17:35:01;8.70;;;3.27;;
4595;SDS011;2310;49.978;8.742;2023-08-31T17:39:07;7.07;;;3.80;;
4595;SDS011;2310;49.978;8.742;2023-08-31T17:43:08;4.80;;;2.90;;
4595;SDS011;2310;49.978;8.742;2023-08-31T17:47:09;12.97;;;4.47;;
4595;SDS011;2310;49.978;8.742;2023-08-31T17:51:11;6.90;;;3.13;;
4595;SDS011;2310;49.978;8.742;2023-08-31T17:55:14;7.63;;;2.83;;
4595;SDS011;2310;49.978;8.742;2023-08-31T17:59:15;6.93;;;3.70;;
4595;SDS011;2310;49.978;8.742;2023-08-31T18:03:18;11.40;;;3.80;;
4595;SDS011;2310;49.978;8.742;2023-08-31T18:07:20;7.40;;;4.17;;
4595;SDS011;2310;49.978;8.742;2023-08-31T18:11:21;6.87;;;3.40;;
4595;SDS011;2310;49.978;8.742;2023-08-31T18:15:22;6.70;;;3.97;;
4595;SDS011;2310;49.978;8.742;2023-08-31T18:19:24;9.53;;;4.07;;
4595;SDS011;2310;49.978;8.742;2023-08-31T18:23:26;7.13;;;3.57;;
4595;SDS011;2310;49.978;8.742;2023-08-31T18:27:28;8.20;;;4.20;;
4595;SDS011;2310;49.978;8.742;2023-08-31T18:31:29;7.30;;;3.50;;
4595;SDS011;2310;49.978;8.742;2023-08-31T18:35:30;6.67;;;3.47;;
4595;SDS011;2310;49.978;8.742;2023-08-31T18:39:32;9.20;;;3.90;;
4595;SDS011;2310;49.978;8.742;2023-08-31T18:43:33;7.60;;;3.03;;
4595;SDS011;2310;49.978;8.742;2023-08-31T18:47:34;7.90;;;3.93;;
4595;SDS011;2310;49.978;8.742;2023-08-31T18:51:38;7.67;;;4.43;;
4595;SDS011;2310;49.978;8.742;2023-08-31T18:55:41;9.73;;;3.63;;
4595;SDS011;2310;49.978;8.742;2023-08-31T18:59:42;9.53;;;4.43;;
4595;SDS011;2310;49.978;8.742;2023-08-31T19:03:44;6.93;;;3.40;;
4595;SDS011;2310;49.978;8.742;2023-08-31T19:07:46;7.23;;;4.30;;
4595;SDS011;2310;49.978;8.742;2023-08-31T19:11:47;10.30;;;3.87;;
4595;SDS011;2310;49.978;8.742;2023-08-31T19:15:49;6.90;;;4.17;;
4595;SDS011;2310;49.978;8.742;2023-08-31T19:19:50;7.07;;;4.30;;
4595;SDS011;2310;49.978;8.742;2023-08-31T19:23:51;6.13;;;4.00;;
4595;SDS011;2310;49.978;8.742;2023-08-31T19:27:53;8.03;;;3.27;;
4595;SDS011;2310;49.978;8.742;2023-08-31T19:31:55;7.90;;;4.80;;
4595;SDS011;2310;49.978;8.742;2023-08-31T19:35:56;8.90;;;4.80;;
4595;SDS011;2310;49.978;8.742;2023-08-31T19:40:00;8.93;;;4.43;;
4595;SDS011;2310;49.978;8.742;2023-08-31T19:44:04;9.33;;;4.60;;
4595;SDS011;2310;49.978;8.742;2023-08-31T19:48:05;12.80;;;4.93;;
4595;SDS011;2310;49.978;8.742;2023-08-31T19:52:07;8.80;;;4.30;;
4595;SDS011;2310;49.978;8.742;2023-08-31T19:56:09;8.30;;;4.00;;
4595;SDS011;2310;49.978;8.742;2023-08-31T20:00:10;6.33;;;4.30;;
4595;SDS011;2310;49.978;8.742;2023-08-31T20:04:12;11.63;;;3.87;;
4595;SDS011;2310;49.978;8.742;2023-08-31T20:08:13;7.13;;;4.30;;
4595;SDS011;2310;49.978;8.742;2023-08-31T20:12:15;8.10;;;4.37;;
4595;SDS011;2310;49.978;8.742;2023-08-31T20:16:16;6.17;;;3.80;;
4595;SDS011;2310;49.978;8.742;2023-08-31T20:20:18;9.50;;;4.43;;
4595;SDS011;2310;49.978;8.742;2023-08-31T20:24:20;10.93;;;4.97;;
4595;SDS011;2310;49.978;8.742;2023-08-31T20:28:21;8.30;;;4.43;;
4595;SDS011;2310;49.978;8.742;2023-08-31T20:32:23;7.87;;;4.23;;
4595;SDS011;2310;49.978;8.742;2023-08-31T20:36:25;7.63;;;4.60;;
4595;SDS011;2310;49.978;8.742;2023-08-31T20:40:26;7.20;;;4.67;;
4595;SDS011;2310;49.978;8.742;2023-08-31T20:44:28;9.80;;;5.30;;
4595;SDS011;2310;49.978;8.742;2023-08-31T20:48:30;12.47;;;5.73;;
4595;SDS011;2310;49.978;8.742;2023-08-31T20:52:32;8.20;;;5.43;;
4595;SDS011;2310;49.978;8.742;2023-08-31T20:56:34;10.67;;;4.60;;
4595;SDS011;2310;49.978;8.742;2023-08-31T21:00:36;11.27;;;5.17;;
4595;SDS011;2310;49.978;8.742;2023-08-31T21:04:38;11.50;;;5.30;;
4595;SDS011;2310;49.978;8.742;2023-08-31T21:08:39;9.87;;;5.60;;
4595;SDS011;2310;49.978;8.742;2023-08-31T21:12:41;8.03;;;4.80;;
4595;SDS011;2310;49.978;8.742;2023-08-31T21:16:42;9.00;;;5.40;;
4595;SDS011;2310;49.978;8.742;2023-08-31T21:20:44;10.37;;;6.03;;
4595;SDS011;2310;49.978;8.742;2023-08-31T21:24:45;7.40;;;5.50;;
4595;SDS011;2310;49.978;8.742;2023-08-31T21:28:47;9.20;;;5.53;;
4595;SDS011;2310;49.978;8.742;2023-08-31T21:32:48;9.93;;;5.70;;
4595;SDS011;2310;49.978;8.742;2023-08-31T21:36:50;6.93;;;4.50;;
4595;SDS011;2310;49.978;8.742;2023-08-31T21:40:51;10.00;;;5.40;;
4595;SDS011;2310;49.978;8.742;2023-08-31T21:44:53;9.57;;;5.07;;
4595;SDS011;2310;49.978;8.742;2023-08-31T21:48:54;7.73;;;5.10;;
4595;SDS011;2310;49.978;8.742;2023-08-31T21:52:55;9.13;;;6.37;;
4595;SDS011;2310;49.978;8.742;2023-08-31T21:56:57;9.90;;;5.63;;
4595;SDS011;2310;49.978;8.742;2023-08-31T22:00:59;9.87;;;6.10;;
4595;SDS011;2310;49.978;8.742;2023-08-31T22:05:01;7.77;;;5.03;;
4595;SDS011;2310;49.978;8.742;2023-08-31T22:09:04;8.37;;;5.57;;
4595;SDS011;2310;49.978;8.742;2023-08-31T22:13:07;8.57;;;5.27;;
4595;SDS011;2310;49.978;8.742;2023-08-31T22:17:08;7.37;;;5.00;;
4595;SDS011;2310;49.978;8.742;2023-08-31T22:21:10;10.00;;;5.40;;
4595;SDS011;2310;49.978;8.742;2023-08-31T22:25:13;9.00;;;5.53;;
4595;SDS011;2310;49.978;8.742;2023-08-31T22:29:15;8.57;;;5.63;;
4595;SDS011;2310;49.978;8.742;2023-08-31T22:33:17;10.97;;;5.60;;
4595;SDS011;2310;49.978;8.742;2023-08-31T22:37:19;15.23;;;6.53;;
4595;SDS011;2310;49.978;8.742;2023-08-31T22:41:20;7.10;;;4.70;;
4595;SDS011;2310;49.978;8.742;2023-08-31T22:45:22;9.97;;;6.30;;
4595;SDS011;2310;49.978;8.742;2023-08-31T22:49:23;7.50;;;5.43;;
4595;SDS011;2310;49.978;8.742;2023-08-31T22:53:24;6.20;;;4.20;;
4595;SDS011;2310;49.978;8.742;2023-08-31T22:57:26;7.07;;;5.00;;
4595;SDS011;2310;49.978;8.742;2023-08-31T23:01:28;7.30;;;4.30;;
4595;SDS011;2310;49.978;8.742;2023-08-31T23:05:29;7.63;;;5.07;;
4595;SDS011;2310;49.978;8.742;2023-08-31T23:09:30;7.57;;;5.83;;
4595;SDS011;2310;49.978;8.742;2023-08-31T23:13:32;5.80;;;4.73;;
4595;SDS011;2310;49.978;8.742;2023-08-31T23:17:34;7.50;;;5.10;;
4595;SDS011;2310;49.978;8.742;2023-08-31T23:21:35;9.33;;;5.10;;
4595;SDS011;2310;49.978;8.742;2023-08-31T23:25:38;6.70;;;4.37;;
4595;SDS011;2310;49.978;8.742;2023-08-31T23:29:40;6.50;;;5.23;;
4595;SDS011;2310;49.978;8.742;2023-08-31T23:33:41;9.40;;;5.70;;
4595;SDS011;2310;49.978;8.742;2023-08-31T23:37:43;7.70;;;5.17;;
4595;SDS011;2310;49.978;8.742;2023-08-31T23:41:45;9.10;;;4.90;;
4595;SDS011;2310;49.978;8.742;2023-08-31T23:45:46;10.77;;;4.90;;
4595;SDS011;2310;49.978;8.742;2023-08-31T23:49:47;8.77;;;5.73;;
4595;SDS011;2310;49.978;8.742;2023-08-31T23:53:49;7.50;;;5.30;;
4595;SDS011;2310;49.978;8.742;2023-08-31T23:57:50;9.27;;;5.63;;
